Time;durP1;ratioP1;P1;durP2;ratioP2;P2;SDS_P1;SDS_P2;PMS_P1;PMS_P2;Temp;Humidity;BMP_temperature;BMP_pressure;BME280_temperature;BME280_humidity;BME280_pressure;Samples;Min_cycle;Max_cycle;Signal;HPM_P1;HPM_P2
2023/03/31 00:01:10;;;;;;;11.60;3.13;;;;;;;;;;4995052;28;20800;-70
2023/03/31 00:03:42;;;;;;;10.07;2.87;;;;;;;;;;4994438;28;20476;-70
2023/03/31 00:06:16;;;;;;;11.40;3.37;;;;;;;;;;4994179;28;20488;-70
2023/03/31 00:08:44;;;;;;;9.10;4.40;;;;;;;;;;4994714;28;20540;-70
2023/03/31 00:11:11;;;;;;;7.73;2.70;;;;;;;;;;4993735;28;20460;-70
2023/03/31 00:13:39;;;;;;;10.03;3.93;;;;;;;;;;4991964;28;20468;-70
2023/03/31 00:16:11;;;;;;;14.50;3.50;;;;;;;;;;4992369;28;20496;-70
2023/03/31 00:18:46;;;;;;;12.97;3.80;;;;;;;;;;4992123;28;20857;-70
2023/03/31 00:21:23;;;;;;;10.60;2.60;;;;;;;;;;4991570;28;20471;-70
2023/03/31 00:23:50;;;;;;;11.23;3.33;;;;;;;;;;4991209;28;20460;-70
2023/03/31 00:26:17;;;;;;;7.53;2.77;;;;;;;;;;4991510;28;20563;-70
2023/03/31 00:28:45;;;;;;;10.10;3.07;;;;;;;;;;4992511;28;20533;-70
2023/03/31 00:31:13;;;;;;;19.87;3.17;;;;;;;;;;4994833;28;20468;-70
2023/03/31 00:33:42;;;;;;;9.73;3.10;;;;;;;;;;4993808;28;20548;-71
2023/03/31 00:36:09;;;;;;;9.90;3.60;;;;;;;;;;5003312;28;20493;-70
2023/03/31 00:38:37;;;;;;;9.37;3.83;;;;;;;;;;5076305;28;20472;-70
2023/03/31 00:41:05;;;;;;;5.93;3.33;;;;;;;;;;5075652;28;20487;-70
2023/03/31 00:43:33;;;;;;;8.50;4.30;;;;;;;;;;5074685;28;20449;-71
2023/03/31 00:46:03;;;;;;;8.17;3.80;;;;;;;;;;5077883;28;20472;-70
2023/03/31 00:48:33;;;;;;;12.53;4.17;;;;;;;;;;5084695;28;20440;-71
2023/03/31 00:51:04;;;;;;;10.90;4.57;;;;;;;;;;5083618;28;20449;-70
2023/03/31 00:53:32;;;;;;;10.07;5.00;;;;;;;;;;5084899;28;20485;-71
2023/03/31 00:56:12;;;;;;;9.30;3.63;;;;;;;;;;5085631;28;20484;-70
2023/03/31 00:58:44;;;;;;;7.40;4.13;;;;;;;;;;5087463;28;20453;-70
2023/03/31 01:01:14;;;;;;;8.60;4.80;;;;;;;;;;5085729;28;20449;-70
2023/03/31 01:03:47;;;;;;;14.43;5.47;;;;;;;;;;5079666;28;20452;-71
2023/03/31 01:06:18;;;;;;;11.80;6.73;;;;;;;;;;5083764;28;20820;-71
2023/03/31 01:08:49;;;;;;;10.80;5.70;;;;;;;;;;5081833;28;20484;-71
2023/03/31 01:11:23;;;;;;;11.47;4.87;;;;;;;;;;5083623;28;21151;-71
2023/03/31 01:16:40;;;;;;;9.37;4.20;;;;;;;;;;5069289;28;20488;-71
2023/03/31 01:19:25;;;;;;;13.37;4.87;;;;;;;;;;5083394;28;20559;-71
2023/03/31 01:22:10;;;;;;;12.30;4.73;;;;;;;;;;5078369;28;20713;-70
2023/03/31 01:25:00;;;;;;;6.50;4.80;;;;;;;;;;5079677;28;20448;-71
2023/03/31 01:27:53;;;;;;;7.73;5.40;;;;;;;;;;5078851;28;20777;-71
2023/03/31 01:30:41;;;;;;;11.70;6.10;;;;;;;;;;5078462;28;20460;-71
2023/03/31 01:33:29;;;;;;;12.30;5.20;;;;;;;;;;5077596;28;20464;-70
2023/03/31 01:36:13;;;;;;;13.77;4.90;;;;;;;;;;5042283;28;20485;-71
2023/03/31 01:38:56;;;;;;;10.43;5.23;;;;;;;;;;4995470;28;20475;-71
2023/03/31 01:41:35;;;;;;;10.83;5.53;;;;;;;;;;4976881;28;20453;-71
2023/03/31 01:44:07;;;;;;;8.83;5.80;;;;;;;;;;4978226;28;20464;-71
2023/03/31 01:46:45;;;;;;;9.40;4.97;;;;;;;;;;4977778;28;20493;-71
2023/03/31 01:49:18;;;;;;;12.47;6.20;;;;;;;;;;4977445;28;20497;-71
2023/03/31 01:51:49;;;;;;;9.60;6.13;;;;;;;;;;4979027;28;20548;-71
2023/03/31 01:54:29;;;;;;;9.77;5.23;;;;;;;;;;4995851;28;20463;-70
2023/03/31 01:57:00;;;;;;;9.37;5.77;;;;;;;;;;4996088;28;20904;-71
2023/03/31 01:59:33;;;;;;;11.67;5.20;;;;;;;;;;4996360;28;20456;-70
2023/03/31 02:02:02;;;;;;;17.60;6.20;;;;;;;;;;4995864;28;20536;-70
2023/03/31 02:04:31;;;;;;;11.70;7.13;;;;;;;;;;4982796;28;20458;-71
2023/03/31 02:07:03;;;;;;;20.90;9.10;;;;;;;;;;4979765;28;20842;-71
2023/03/31 02:09:34;;;;;;;11.30;6.70;;;;;;;;;;4998106;28;20461;-71
2023/03/31 02:12:24;;;;;;;15.40;6.20;;;;;;;;;;4997844;28;20471;-70
2023/03/31 02:14:53;;;;;;;14.00;6.70;;;;;;;;;;4996500;28;20727;-70
2023/03/31 02:17:29;;;;;;;12.43;6.33;;;;;;;;;;4982011;28;20915;-70
2023/03/31 02:20:04;;;;;;;18.50;7.50;;;;;;;;;;4977766;28;20492;-71
2023/03/31 02:22:34;;;;;;;10.20;6.20;;;;;;;;;;4977242;28;20822;-71
2023/03/31 02:25:03;;;;;;;11.50;6.90;;;;;;;;;;4977228;28;20880;-71
2023/03/31 02:27:36;;;;;;;14.80;6.67;;;;;;;;;;4976762;28;20482;-71
2023/03/31 02:30:12;;;;;;;11.03;7.10;;;;;;;;;;4977396;28;20461;-71
2023/03/31 02:32:45;;;;;;;16.93;8.23;;;;;;;;;;4977636;28;20853;-70
2023/03/31 02:35:15;;;;;;;15.80;8.03;;;;;;;;;;4986911;28;20534;-71
2023/03/31 02:37:45;;;;;;;11.73;7.77;;;;;;;;;;4997484;28;20561;-71
2023/03/31 02:40:14;;;;;;;17.63;7.43;;;;;;;;;;4996444;28;20535;-71
2023/03/31 02:42:43;;;;;;;11.17;7.50;;;;;;;;;;4997123;28;20465;-71
2023/03/31 02:45:25;;;;;;;13.37;6.80;;;;;;;;;;4996081;28;20491;-71
2023/03/31 02:47:56;;;;;;;15.60;6.97;;;;;;;;;;4995131;28;20449;-71
2023/03/31 02:50:25;;;;;;;19.57;8.17;;;;;;;;;;4997034;28;20449;-71
2023/03/31 02:53:01;;;;;;;14.50;6.87;;;;;;;;;;4995098;28;20491;-71
2023/03/31 02:55:38;;;;;;;13.10;7.20;;;;;;;;;;4994952;28;20460;-71
2023/03/31 02:58:36;;;;;;;13.20;7.43;;;;;;;;;;4993295;28;20898;-71
2023/03/31 03:01:24;;;;;;;12.70;6.83;;;;;;;;;;4976941;28;20457;-71
2023/03/31 03:03:59;;;;;;;14.40;7.30;;;;;;;;;;4977580;28;20802;-71
2023/03/31 03:06:36;;;;;;;18.37;8.37;;;;;;;;;;4976316;28;20544;-71
2023/03/31 03:09:08;;;;;;;12.93;6.60;;;;;;;;;;4976693;28;20474;-71
2023/03/31 03:11:40;;;;;;;13.37;8.30;;;;;;;;;;4977773;28;20457;-71
2023/03/31 03:14:10;;;;;;;11.57;6.50;;;;;;;;;;4990763;28;20843;-71
2023/03/31 03:16:56;;;;;;;14.93;7.80;;;;;;;;;;4985408;28;20505;-72
2023/03/31 03:19:25;;;;;;;11.30;7.50;;;;;;;;;;4976296;28;20469;-70
2023/03/31 03:21:57;;;;;;;15.70;8.77;;;;;;;;;;4977632;28;20561;-70
2023/03/31 03:24:33;;;;;;;12.00;7.17;;;;;;;;;;4975057;28;20794;-70
2023/03/31 03:27:03;;;;;;;12.27;7.67;;;;;;;;;;4985359;28;20469;-71
2023/03/31 03:29:30;;;;;;;13.00;7.77;;;;;;;;;;4977352;28;20709;-71
2023/03/31 03:32:04;;;;;;;13.87;8.43;;;;;;;;;;4986045;28;20480;-71
2023/03/31 03:34:33;;;;;;;16.27;7.73;;;;;;;;;;4995322;28;20533;-70
2023/03/31 03:37:02;;;;;;;17.23;7.00;;;;;;;;;;4994225;28;20492;-70
2023/03/31 03:39:33;;;;;;;15.57;8.47;;;;;;;;;;4995079;28;20464;-70
2023/03/31 03:42:01;;;;;;;13.00;7.60;;;;;;;;;;4983199;28;20469;-70
2023/03/31 03:44:28;;;;;;;12.90;7.93;;;;;;;;;;4974838;28;20468;-70
2023/03/31 03:46:56;;;;;;;11.40;8.17;;;;;;;;;;4972445;28;20504;-70
2023/03/31 03:49:23;;;;;;;14.60;8.23;;;;;;;;;;4975073;28;20824;-71
2023/03/31 03:51:52;;;;;;;12.13;7.87;;;;;;;;;;4976542;28;20512;-70
2023/03/31 03:54:19;;;;;;;13.10;6.60;;;;;;;;;;4975988;28;20760;-70
2023/03/31 03:56:46;;;;;;;13.00;7.50;;;;;;;;;;4976405;28;20539;-70
2023/03/31 03:59:14;;;;;;;11.17;6.70;;;;;;;;;;4973775;28;20476;-70
2023/03/31 04:01:43;;;;;;;13.60;6.67;;;;;;;;;;4974447;28;20511;-70
2023/03/31 04:04:10;;;;;;;14.80;6.13;;;;;;;;;;4972643;28;20471;-70
2023/03/31 04:06:37;;;;;;;11.53;6.30;;;;;;;;;;4972666;28;20542;-70
2023/03/31 04:09:06;;;;;;;12.87;5.20;;;;;;;;;;4973194;28;20446;-70
2023/03/31 04:11:34;;;;;;;14.30;7.10;;;;;;;;;;4974784;28;20456;-70
2023/03/31 04:14:01;;;;;;;15.03;7.33;;;;;;;;;;4973682;28;20834;-70
2023/03/31 04:16:29;;;;;;;10.43;4.90;;;;;;;;;;4974481;28;20539;-71
2023/03/31 04:18:57;;;;;;;11.30;5.17;;;;;;;;;;4974202;28;20466;-70
2023/03/31 04:21:26;;;;;;;11.63;5.30;;;;;;;;;;4991497;28;20468;-71
2023/03/31 04:24:00;;;;;;;17.43;5.50;;;;;;;;;;4994122;28;20543;-71
2023/03/31 04:26:37;;;;;;;10.03;5.53;;;;;;;;;;4992288;28;20527;-71
2023/03/31 04:29:06;;;;;;;16.27;6.00;;;;;;;;;;4991716;28;20460;-71
2023/03/31 04:31:37;;;;;;;13.73;5.53;;;;;;;;;;4993574;28;20500;-71
2023/03/31 04:34:05;;;;;;;14.43;6.30;;;;;;;;;;4991597;28;20457;-70
2023/03/31 04:36:33;;;;;;;10.80;5.30;;;;;;;;;;4991446;28;20950;-70
2023/03/31 04:39:04;;;;;;;14.70;5.53;;;;;;;;;;4977199;28;20480;-71
2023/03/31 04:41:33;;;;;;;10.17;4.70;;;;;;;;;;4973318;28;20461;-71
2023/03/31 04:44:00;;;;;;;11.63;5.50;;;;;;;;;;4973191;28;20563;-70
2023/03/31 04:46:27;;;;;;;11.10;4.77;;;;;;;;;;4972661;28;20885;-70
2023/03/31 04:48:55;;;;;;;12.93;6.00;;;;;;;;;;4973826;28;20865;-71
2023/03/31 04:51:22;;;;;;;14.13;5.90;;;;;;;;;;4974123;28;20485;-70
2023/03/31 04:53:51;;;;;;;9.77;5.20;;;;;;;;;;4975242;28;20540;-70
2023/03/31 04:56:18;;;;;;;16.87;5.83;;;;;;;;;;4978145;28;20579;-71
2023/03/31 04:58:47;;;;;;;12.10;5.23;;;;;;;;;;4987013;28;20457;-70
2023/03/31 05:01:17;;;;;;;11.27;5.00;;;;;;;;;;4998102;28;20876;-71
2023/03/31 05:03:46;;;;;;;11.03;5.50;;;;;;;;;;4993518;28;20895;-70
2023/03/31 05:06:14;;;;;;;11.87;6.90;;;;;;;;;;4981634;28;20597;-71
2023/03/31 05:08:44;;;;;;;11.73;4.50;;;;;;;;;;4996184;28;20897;-69
2023/03/31 05:11:13;;;;;;;13.27;5.27;;;;;;;;;;4987488;28;20499;-71
2023/03/31 05:13:40;;;;;;;8.33;4.97;;;;;;;;;;5000011;28;20451;-71
2023/03/31 05:16:11;;;;;;;11.73;4.03;;;;;;;;;;5016823;28;20546;-71
2023/03/31 05:18:39;;;;;;;11.50;5.23;;;;;;;;;;5016109;28;20459;-71
2023/03/31 05:21:10;;;;;;;12.83;5.40;;;;;;;;;;4985768;28;20458;-71
2023/03/31 05:23:38;;;;;;;12.23;5.70;;;;;;;;;;4976748;28;20461;-71
2023/03/31 05:26:06;;;;;;;12.23;5.53;;;;;;;;;;4976466;28;20874;-71
2023/03/31 05:28:34;;;;;;;10.97;5.20;;;;;;;;;;4975331;28;20466;-71
2023/03/31 05:31:02;;;;;;;8.63;4.77;;;;;;;;;;4987988;28;20461;-71
2023/03/31 05:33:31;;;;;;;9.30;3.97;;;;;;;;;;4979391;28;20489;-71
2023/03/31 05:36:00;;;;;;;12.73;4.70;;;;;;;;;;4983956;28;20473;-71
2023/03/31 05:38:30;;;;;;;8.10;4.77;;;;;;;;;;5077223;28;20474;-71
2023/03/31 05:41:03;;;;;;;7.50;4.23;;;;;;;;;;5061090;28;20454;-71
2023/03/31 05:46:36;;;;;;;11.43;4.63;;;;;;;;;;5059108;28;20429;-71
2023/03/31 05:49:06;;;;;;;13.80;6.70;;;;;;;;;;5066505;28;20470;-72
2023/03/31 05:51:36;;;;;;;9.23;4.67;;;;;;;;;;5096242;28;20887;-71
2023/03/31 05:54:07;;;;;;;12.83;5.00;;;;;;;;;;5091212;28;20551;-71
2023/03/31 05:56:38;;;;;;;13.50;5.97;;;;;;;;;;5066122;28;20836;-71
2023/03/31 05:59:06;;;;;;;7.53;4.57;;;;;;;;;;5075874;28;20732;-72
2023/03/31 06:01:38;;;;;;;9.53;4.47;;;;;;;;;;5078073;28;20547;-71
2023/03/31 06:04:07;;;;;;;9.27;3.90;;;;;;;;;;5077432;28;20521;-71
2023/03/31 06:06:41;;;;;;;14.50;4.27;;;;;;;;;;5077253;28;20441;-71
2023/03/31 06:09:13;;;;;;;12.47;4.83;;;;;;;;;;5077141;28;20458;-71
2023/03/31 06:11:41;;;;;;;10.87;3.67;;;;;;;;;;5075980;28;20441;-71
2023/03/31 06:14:08;;;;;;;8.83;4.70;;;;;;;;;;5075400;28;20880;-70
2023/03/31 06:16:36;;;;;;;14.80;4.53;;;;;;;;;;5076172;28;20592;-70
2023/03/31 06:19:03;;;;;;;8.73;4.03;;;;;;;;;;5075025;28;20546;-71
2023/03/31 06:24:24;;;;;;;11.80;4.03;;;;;;;;;;5055455;28;20612;-70
2023/03/31 06:29:41;;;;;;;12.40;5.03;;;;;;;;;;5004811;28;20448;-71
2023/03/31 06:32:18;;;;;;;14.93;3.90;;;;;;;;;;5005307;28;20462;-71
2023/03/31 06:34:49;;;;;;;8.97;3.90;;;;;;;;;;5003190;28;20471;-70
2023/03/31 06:37:18;;;;;;;7.40;3.67;;;;;;;;;;5004027;28;20483;-70
2023/03/31 06:39:49;;;;;;;7.93;3.57;;;;;;;;;;5004967;28;20493;-71
2023/03/31 06:42:16;;;;;;;14.80;3.80;;;;;;;;;;5007783;28;20460;-71
2023/03/31 06:44:47;;;;;;;11.13;3.40;;;;;;;;;;5007017;28;20539;-70
2023/03/31 06:47:14;;;;;;;7.93;3.57;;;;;;;;;;5010251;28;20448;-70
2023/03/31 06:49:42;;;;;;;6.60;3.90;;;;;;;;;;5011305;28;20491;-71
2023/03/31 06:52:12;;;;;;;8.80;2.77;;;;;;;;;;5010377;28;20463;-71
2023/03/31 06:54:50;;;;;;;9.07;3.77;;;;;;;;;;4995784;28;20462;-70
2023/03/31 06:57:19;;;;;;;8.57;3.40;;;;;;;;;;4995944;28;20495;-71
2023/03/31 06:59:48;;;;;;;6.97;2.33;;;;;;;;;;4992310;28;20832;-70
2023/03/31 07:02:18;;;;;;;6.97;2.70;;;;;;;;;;4991067;28;20456;-70
2023/03/31 07:04:45;;;;;;;6.70;2.93;;;;;;;;;;4990285;28;20487;-72
2023/03/31 07:07:15;;;;;;;7.87;3.60;;;;;;;;;;4987821;28;20701;-69
2023/03/31 07:09:46;;;;;;;7.80;4.13;;;;;;;;;;4990403;28;20453;-70
2023/03/31 07:12:20;;;;;;;7.60;2.87;;;;;;;;;;4991457;28;20461;-69
2023/03/31 07:14:50;;;;;;;9.70;3.10;;;;;;;;;;4997226;28;20555;-70
2023/03/31 07:17:29;;;;;;;5.07;2.03;;;;;;;;;;5008515;28;20556;-70
2023/03/31 07:20:13;;;;;;;14.13;4.57;;;;;;;;;;5009012;28;20462;-70
2023/03/31 07:22:57;;;;;;;8.67;2.73;;;;;;;;;;5008383;28;20470;-71
2023/03/31 07:25:34;;;;;;;4.90;2.70;;;;;;;;;;4995576;28;20553;-70
2023/03/31 07:28:06;;;;;;;5.33;2.10;;;;;;;;;;5007177;28;20460;-71
2023/03/31 07:30:35;;;;;;;7.43;2.90;;;;;;;;;;4994080;28;20588;-70
2023/03/31 07:33:03;;;;;;;12.33;3.47;;;;;;;;;;4989650;28;20460;-71
2023/03/31 07:35:38;;;;;;;8.77;3.40;;;;;;;;;;4989362;28;20449;-71
2023/03/31 07:38:06;;;;;;;9.80;3.00;;;;;;;;;;4987054;28;20520;-71
2023/03/31 07:40:38;;;;;;;5.83;2.80;;;;;;;;;;4989585;28;20447;-72
2023/03/31 07:43:09;;;;;;;7.63;2.40;;;;;;;;;;4990991;28;20566;-72
2023/03/31 07:45:39;;;;;;;7.93;2.97;;;;;;;;;;4990974;28;20533;-71
2023/03/31 07:48:30;;;;;;;8.87;2.67;;;;;;;;;;4990723;28;20469;-72
2023/03/31 07:51:09;;;;;;;8.20;3.80;;;;;;;;;;4991577;28;20761;-73
2023/03/31 07:53:39;;;;;;;11.43;5.17;;;;;;;;;;4991235;28;20460;-72
2023/03/31 07:56:09;;;;;;;5.50;2.47;;;;;;;;;;4990679;28;20522;-72
2023/03/31 07:58:38;;;;;;;5.17;1.73;;;;;;;;;;4983423;28;20832;-72
2023/03/31 08:01:06;;;;;;;5.73;2.00;;;;;;;;;;4970817;28;20539;-72
2023/03/31 08:03:33;;;;;;;9.90;3.20;;;;;;;;;;4970937;28;20564;-72
2023/03/31 08:06:01;;;;;;;10.90;2.70;;;;;;;;;;4969456;28;20462;-71
2023/03/31 08:08:30;;;;;;;8.20;5.00;;;;;;;;;;4965448;28;20662;-71
2023/03/31 08:11:00;;;;;;;9.83;3.40;;;;;;;;;;4966470;28;20461;-72
2023/03/31 08:13:31;;;;;;;4.00;2.13;;;;;;;;;;4966178;28;20450;-71
2023/03/31 08:15:59;;;;;;;11.10;2.70;;;;;;;;;;4972454;28;21041;-70
2023/03/31 08:18:28;;;;;;;8.13;3.10;;;;;;;;;;4978846;28;20535;-72
2023/03/31 08:21:17;;;;;;;6.73;3.53;;;;;;;;;;4991410;28;20530;-72
2023/03/31 08:23:47;;;;;;;6.20;4.00;;;;;;;;;;4988477;28;21087;-71
2023/03/31 08:26:20;;;;;;;5.53;2.70;;;;;;;;;;4976005;28;20457;-70
2023/03/31 08:28:51;;;;;;;6.70;3.03;;;;;;;;;;4989211;28;20450;-72
2023/03/31 08:31:22;;;;;;;9.27;2.53;;;;;;;;;;4983480;28;20762;-72
2023/03/31 08:33:53;;;;;;;4.37;2.00;;;;;;;;;;4984550;28;20878;-72
2023/03/31 08:36:21;;;;;;;5.10;2.27;;;;;;;;;;4979257;28;21248;-71
2023/03/31 08:38:48;;;;;;;4.50;1.77;;;;;;;;;;5013133;28;20521;-72
2023/03/31 08:41:25;;;;;;;9.07;2.80;;;;;;;;;;5055621;28;20453;-72
2023/03/31 08:43:57;;;;;;;6.83;2.80;;;;;;;;;;5053843;28;20453;-71
2023/03/31 08:46:34;;;;;;;5.07;2.00;;;;;;;;;;5062330;28;20460;-72
2023/03/31 08:49:04;;;;;;;8.67;2.90;;;;;;;;;;5071707;28;20571;-72
2023/03/31 08:51:33;;;;;;;10.50;2.30;;;;;;;;;;5073888;28;20450;-72
2023/03/31 08:54:02;;;;;;;5.63;1.93;;;;;;;;;;5073852;28;20492;-71
2023/03/31 08:56:38;;;;;;;6.63;2.00;;;;;;;;;;5072802;28;20915;-72
2023/03/31 08:59:36;;;;;;;4.90;2.23;;;;;;;;;;5074191;28;20487;-71
2023/03/31 09:02:17;;;;;;;4.57;2.47;;;;;;;;;;5085452;28;20469;-71
2023/03/31 09:04:53;;;;;;;5.10;2.00;;;;;;;;;;5076197;28;20447;-72
2023/03/31 09:07:27;;;;;;;4.33;2.13;;;;;;;;;;5084247;28;20454;-71
2023/03/31 09:10:00;;;;;;;4.77;2.33;;;;;;;;;;5082329;28;20512;-71
2023/03/31 09:12:36;;;;;;;6.17;1.80;;;;;;;;;;5064313;28;20480;-71
2023/03/31 09:15:05;;;;;;;6.20;1.63;;;;;;;;;;5071805;28;20500;-71
2023/03/31 09:17:42;;;;;;;5.20;1.97;;;;;;;;;;5075901;28;20549;-70
2023/03/31 09:20:36;;;;;;;5.70;2.50;;;;;;;;;;5075863;28;20452;-73
2023/03/31 09:23:11;;;;;;;5.93;1.90;;;;;;;;;;5075101;28;20471;-73
2023/03/31 09:25:44;;;;;;;4.90;2.00;;;;;;;;;;5068003;28;20453;-71
2023/03/31 09:31:27;;;;;;;7.70;2.73;;;;;;;;;;5009061;28;20988;-72
2023/03/31 09:34:04;;;;;;;6.70;2.40;;;;;;;;;;5056301;28;20492;-71
2023/03/31 09:36:47;;;;;;;7.43;2.93;;;;;;;;;;5062602;28;20460;-71
2023/03/31 09:39:15;;;;;;;4.70;2.83;;;;;;;;;;5010149;28;20507;-71
2023/03/31 09:41:45;;;;;;;6.07;3.57;;;;;;;;;;4984995;28;20981;-70
2023/03/31 09:44:24;;;;;;;8.10;3.00;;;;;;;;;;4989174;28;20680;-72
2023/03/31 09:46:52;;;;;;;4.60;2.40;;;;;;;;;;4972552;28;20457;-71
2023/03/31 09:49:23;;;;;;;4.00;1.57;;;;;;;;;;4973748;28;20485;-71
2023/03/31 09:51:55;;;;;;;8.53;5.03;;;;;;;;;;4973204;28;20463;-71
2023/03/31 09:54:25;;;;;;;8.10;4.20;;;;;;;;;;4974245;28;20489;-71
2023/03/31 09:56:53;;;;;;;9.83;3.67;;;;;;;;;;4971339;28;21007;-73
2023/03/31 09:59:24;;;;;;;8.77;4.80;;;;;;;;;;4974324;28;20476;-72
2023/03/31 10:01:53;;;;;;;11.90;4.17;;;;;;;;;;4971529;28;20519;-71
2023/03/31 10:04:24;;;;;;;5.83;2.80;;;;;;;;;;4981952;28;20868;-71
2023/03/31 10:06:54;;;;;;;5.40;3.10;;;;;;;;;;4973696;28;20473;-71
2023/03/31 10:09:29;;;;;;;4.87;2.60;;;;;;;;;;4979903;28;20600;-72
2023/03/31 10:11:57;;;;;;;7.10;3.27;;;;;;;;;;4973359;28;20472;-71
2023/03/31 10:14:28;;;;;;;11.33;4.17;;;;;;;;;;4970095;28;20458;-71
2023/03/31 10:16:57;;;;;;;8.80;3.60;;;;;;;;;;4968615;28;21108;-73
2023/03/31 10:19:28;;;;;;;7.40;4.20;;;;;;;;;;4968702;28;20485;-71
2023/03/31 10:21:58;;;;;;;9.70;4.77;;;;;;;;;;4971118;28;20460;-72
2023/03/31 10:24:39;;;;;;;7.30;3.60;;;;;;;;;;4984842;28;20567;-73
2023/03/31 10:27:25;;;;;;;14.10;4.37;;;;;;;;;;4972396;28;20495;-71
2023/03/31 10:30:04;;;;;;;6.53;3.03;;;;;;;;;;4982565;28;20473;-72
2023/03/31 10:32:32;;;;;;;17.20;9.23;;;;;;;;;;4980915;28;20448;-72
2023/03/31 10:35:06;;;;;;;15.63;8.43;;;;;;;;;;4984530;28;20537;-73
2023/03/31 10:37:38;;;;;;;9.40;4.63;;;;;;;;;;4979147;28;20465;-73
2023/03/31 10:40:20;;;;;;;16.00;7.20;;;;;;;;;;4995430;28;20468;-72
2023/03/31 10:43:05;;;;;;;9.83;2.93;;;;;;;;;;4988755;28;20778;-72
2023/03/31 10:45:47;;;;;;;20.13;10.00;;;;;;;;;;4971604;28;20875;-72
2023/03/31 10:48:26;;;;;;;7.50;2.97;;;;;;;;;;4987226;28;20440;-72
2023/03/31 10:51:00;;;;;;;6.33;3.13;;;;;;;;;;4989807;28;20461;-73
2023/03/31 10:53:40;;;;;;;4.50;2.30;;;;;;;;;;4987720;28;20460;-72
2023/03/31 10:56:16;;;;;;;7.80;3.80;;;;;;;;;;4986684;28;20901;-72
2023/03/31 10:58:50;;;;;;;12.30;6.13;;;;;;;;;;4985536;28;20515;-72
2023/03/31 11:01:23;;;;;;;5.00;3.07;;;;;;;;;;4983099;28;20465;-71
2023/03/31 11:04:08;;;;;;;8.70;3.50;;;;;;;;;;5036293;28;20492;-73
2023/03/31 11:06:40;;;;;;;16.30;7.17;;;;;;;;;;5087139;28;20471;-73
2023/03/31 11:09:19;;;;;;;23.43;14.43;;;;;;;;;;5087884;28;20898;-71
2023/03/31 11:11:57;;;;;;;7.43;3.50;;;;;;;;;;5088314;28;20462;-73
2023/03/31 11:15:07;;;;;;;5.87;3.67;;;;;;;;;;5075955;28;20757;-72
2023/03/31 11:17:50;;;;;;;9.47;3.57;;;;;;;;;;5078648;28;20448;-73
2023/03/31 11:20:27;;;;;;;9.43;3.83;;;;;;;;;;5089376;28;20452;-73
2023/03/31 11:23:11;;;;;;;10.50;3.93;;;;;;;;;;5080540;28;20563;-74
2023/03/31 11:26:07;;;;;;;4.73;3.27;;;;;;;;;;5082015;28;20452;-73
2023/03/31 11:29:05;;;;;;;15.23;5.10;;;;;;;;;;5069096;28;21089;-73
2023/03/31 11:31:47;;;;;;;9.87;3.17;;;;;;;;;;5071641;28;20448;-72
2023/03/31 11:34:43;;;;;;;7.30;3.37;;;;;;;;;;5087100;28;20954;-72
2023/03/31 11:37:56;;;;;;;8.87;3.93;;;;;;;;;;5086824;28;21038;-73
2023/03/31 11:40:44;;;;;;;8.27;2.60;;;;;;;;;;5068595;28;20973;-73
2023/03/31 11:43:14;;;;;;;9.87;3.80;;;;;;;;;;5088866;28;20464;-72
2023/03/31 11:45:51;;;;;;;8.80;3.67;;;;;;;;;;5089912;28;20460;-72
2023/03/31 11:48:23;;;;;;;5.20;3.10;;;;;;;;;;5089256;28;20460;-72
2023/03/31 11:59:14;;;;;;;5.17;3.13;;;;;;;;;;5055066;27;20220;-71
2023/03/31 12:02:04;;;;;;;6.90;4.13;;;;;;;;;;5006549;28;20589;-72
2023/03/31 12:04:44;;;;;;;12.83;6.20;;;;;;;;;;5007520;28;20850;-72
2023/03/31 12:10:17;;;;;;;12.07;3.30;;;;;;;;;;5001235;28;20490;-73
2023/03/31 12:12:52;;;;;;;5.10;3.50;;;;;;;;;;4986622;28;20461;-72
2023/03/31 12:15:59;;;;;;;11.17;4.23;;;;;;;;;;4998606;28;20487;-73
2023/03/31 12:21:09;;;;;;;8.80;4.90;;;;;;;;;;4997260;28;20500;-74
2023/03/31 12:23:49;;;;;;;10.83;6.17;;;;;;;;;;4990389;28;20980;-73
2023/03/31 12:26:44;;;;;;;15.47;7.70;;;;;;;;;;4989048;28;20515;-74
2023/03/31 12:29:32;;;;;;;8.00;3.73;;;;;;;;;;5015694;28;20542;-74
2023/03/31 12:35:23;;;;;;;8.83;3.40;;;;;;;;;;4980671;28;20448;-74
2023/03/31 12:38:23;;;;;;;8.30;4.50;;;;;;;;;;4993520;28;20470;-74
2023/03/31 12:41:13;;;;;;;7.20;3.67;;;;;;;;;;4997446;28;20680;-73
2023/03/31 12:44:05;;;;;;;7.70;2.83;;;;;;;;;;5008536;28;20468;-73
2023/03/31 12:46:41;;;;;;;7.43;3.40;;;;;;;;;;5007053;28;20567;-72
2023/03/31 12:58:14;;;;;;;8.77;3.00;;;;;;;;;;5078226;28;20463;-72
2023/03/31 13:01:03;;;;;;;5.00;3.20;;;;;;;;;;5111682;28;20858;-72
2023/03/31 13:03:46;;;;;;;5.00;2.27;;;;;;;;;;5110646;28;20460;-73
2023/03/31 13:06:37;;;;;;;4.40;1.80;;;;;;;;;;5106560;28;20503;-73
2023/03/31 13:09:57;;;;;;;3.37;2.13;;;;;;;;;;5111209;28;20449;-72
2023/03/31 13:12:51;;;;;;;6.87;3.10;;;;;;;;;;5112275;28;20547;-73
2023/03/31 13:15:22;;;;;;;3.10;1.70;;;;;;;;;;5039693;28;20891;-72
2023/03/31 13:18:12;;;;;;;3.00;1.40;;;;;;;;;;5032504;28;21056;-72
2023/03/31 13:20:41;;;;;;;4.40;1.97;;;;;;;;;;5010120;28;21077;-73
2023/03/31 13:23:19;;;;;;;3.40;1.63;;;;;;;;;;5004965;28;20454;-73
2023/03/31 13:26:11;;;;;;;2.60;1.60;;;;;;;;;;5010274;28;20881;-72
2023/03/31 13:28:51;;;;;;;3.97;1.87;;;;;;;;;;5006139;28;20760;-72
2023/03/31 13:31:40;;;;;;;4.40;2.43;;;;;;;;;;5008590;28;20451;-73
2023/03/31 13:37:19;;;;;;;3.57;2.00;;;;;;;;;;4998382;28;20557;-73
2023/03/31 13:43:20;;;;;;;2.20;1.33;;;;;;;;;;5039354;28;20450;-72
2023/03/31 13:48:56;;;;;;;2.13;1.13;;;;;;;;;;4989499;28;20477;-73
2023/03/31 13:51:38;;;;;;;2.33;1.63;;;;;;;;;;4986301;28;20457;-73
2023/03/31 13:57:10;;;;;;;4.53;1.40;;;;;;;;;;5004957;28;20459;-73
2023/03/31 14:02:57;;;;;;;1.90;1.30;;;;;;;;;;4964158;28;20534;-72
2023/03/31 14:05:37;;;;;;;3.07;1.70;;;;;;;;;;4970298;28;20471;-72
2023/03/31 14:08:10;;;;;;;3.27;1.23;;;;;;;;;;4969055;28;20456;-72
2023/03/31 14:10:44;;;;;;;2.37;1.37;;;;;;;;;;5003196;28;20521;-72
2023/03/31 14:13:16;;;;;;;2.60;1.70;;;;;;;;;;4988438;28;20529;-71
2023/03/31 14:15:47;;;;;;;3.30;1.70;;;;;;;;;;4987498;28;21071;-71
2023/03/31 14:18:20;;;;;;;2.23;1.23;;;;;;;;;;4985148;28;20523;-71
2023/03/31 14:20:56;;;;;;;4.10;1.80;;;;;;;;;;4983239;28;20488;-73
2023/03/31 14:23:33;;;;;;;2.67;1.10;;;;;;;;;;4982128;28;20456;-71
2023/03/31 14:26:45;;;;;;;3.30;1.30;;;;;;;;;;5061919;28;20462;-72
2023/03/31 14:29:20;;;;;;;3.30;1.00;;;;;;;;;;5005778;28;20467;-71
2023/03/31 14:31:55;;;;;;;1.93;1.07;;;;;;;;;;4968845;28;20464;-75
2023/03/31 14:37:33;;;;;;;2.70;1.37;;;;;;;;;;5065658;28;20470;-72
2023/03/31 14:42:59;;;;;;;4.47;1.77;;;;;;;;;;4988100;28;20514;-72
2023/03/31 14:48:32;;;;;;;2.90;1.33;;;;;;;;;;5003324;28;20756;-72
2023/03/31 14:51:21;;;;;;;2.57;1.27;;;;;;;;;;4990023;28;20547;-72
2023/03/31 14:53:57;;;;;;;2.80;1.10;;;;;;;;;;4987082;28;20957;-72
2023/03/31 14:56:36;;;;;;;5.00;1.53;;;;;;;;;;4988394;28;20526;-72
2023/03/31 14:59:07;;;;;;;2.90;1.67;;;;;;;;;;4981836;28;20461;-71
2023/03/31 15:01:38;;;;;;;4.23;1.07;;;;;;;;;;4991672;28;20463;-71
2023/03/31 15:04:07;;;;;;;2.97;0.83;;;;;;;;;;4989392;28;20443;-73
2023/03/31 15:09:31;;;;;;;3.60;1.10;;;;;;;;;;4987136;28;20883;-73
2023/03/31 15:12:00;;;;;;;9.20;4.03;;;;;;;;;;4991074;28;20459;-72
2023/03/31 15:14:33;;;;;;;2.97;1.40;;;;;;;;;;5088643;28;20543;-72
2023/03/31 15:17:24;;;;;;;3.23;1.40;;;;;;;;;;4985920;28;20798;-73
2023/03/31 15:22:40;;;;;;;5.00;2.03;;;;;;;;;;4968845;28;20468;-73
2023/03/31 15:25:15;;;;;;;10.17;4.00;;;;;;;;;;4980302;28;20456;-72
2023/03/31 15:27:54;;;;;;;6.33;2.67;;;;;;;;;;4984536;28;20500;-72
2023/03/31 15:30:26;;;;;;;8.03;2.30;;;;;;;;;;5047192;28;20462;-72
2023/03/31 15:32:58;;;;;;;6.33;3.40;;;;;;;;;;4984490;28;20440;-71
2023/03/31 15:35:29;;;;;;;5.40;2.97;;;;;;;;;;4984508;28;20598;-72
2023/03/31 15:37:58;;;;;;;4.40;1.87;;;;;;;;;;4984630;28;20527;-73
2023/03/31 15:40:28;;;;;;;3.40;1.73;;;;;;;;;;4987230;28;21046;-72
2023/03/31 15:42:57;;;;;;;1.90;1.00;;;;;;;;;;4988992;28;20460;-73
2023/03/31 15:45:42;;;;;;;4.57;1.90;;;;;;;;;;4986770;28;20998;-72
2023/03/31 15:48:15;;;;;;;5.03;2.27;;;;;;;;;;4966518;28;20466;-72
2023/03/31 15:50:43;;;;;;;4.90;1.90;;;;;;;;;;4980944;28;21023;-73
2023/03/31 15:53:26;;;;;;;3.70;1.60;;;;;;;;;;4986928;28;20460;-72
2023/03/31 15:56:02;;;;;;;5.00;1.70;;;;;;;;;;5015704;28;20458;-72
2023/03/31 15:58:48;;;;;;;3.27;1.03;;;;;;;;;;4986686;28;20461;-72
2023/03/31 16:01:20;;;;;;;2.77;1.10;;;;;;;;;;4994869;28;20475;-73
2023/03/31 16:03:48;;;;;;;3.73;1.43;;;;;;;;;;4988241;28;20460;-73
2023/03/31 16:06:30;;;;;;;7.87;3.10;;;;;;;;;;5020195;28;20742;-73
2023/03/31 16:09:06;;;;;;;2.47;1.40;;;;;;;;;;4984068;28;20559;-73
2023/03/31 16:11:42;;;;;;;2.10;1.13;;;;;;;;;;5088143;28;20855;-73
2023/03/31 16:14:14;;;;;;;5.37;1.93;;;;;;;;;;5087766;28;20483;-73
2023/03/31 16:16:50;;;;;;;2.87;2.00;;;;;;;;;;5078303;28;20448;-73
2023/03/31 16:19:19;;;;;;;5.00;2.50;;;;;;;;;;5007752;28;20505;-73
2023/03/31 16:24:34;;;;;;;4.70;2.23;;;;;;;;;;4998651;28;20805;-71
2023/03/31 16:27:29;;;;;;;7.73;4.13;;;;;;;;;;4973612;28;20927;-72
2023/03/31 16:30:13;;;;;;;2.50;1.30;;;;;;;;;;5091409;28;20580;-73
2023/03/31 16:32:40;;;;;;;5.73;3.43;;;;;;;;;;5089478;28;20554;-73
2023/03/31 16:35:18;;;;;;;4.53;1.90;;;;;;;;;;5096512;28;20532;-73